Time;durP1;ratioP1;P1;durP2;ratioP2;P2;SDS_P1;SDS_P2;PMS_P1;PMS_P2;Temp;Humidity;BMP_temperature;BMP_pressure;BME280_temperature;BME280_humidity;BME280_pressure;Samples;Min_cycle;Max_cycle;Signal;HPM_P1;HPM_P2
2021/05/25 00:02:03;;;;;;;0.80;0.60;;;;;;;;;;5016195;28;20802;-78
2021/05/25 00:04:29;;;;;;;0.80;0.50;;;;;;;;;;5015901;28;20460;-79
2021/05/25 00:06:57;;;;;;;1.77;0.83;;;;;;;;;;5016306;28;20402;-79
2021/05/25 00:09:23;;;;;;;0.93;0.80;;;;;;;;;;5016412;28;20375;-77
2021/05/25 00:11:49;;;;;;;0.70;0.50;;;;;;;;;;5015370;28;20383;-77
2021/05/25 00:14:19;;;;;;;0.70;0.50;;;;;;;;;;5003645;28;20462;-78
2021/05/25 00:16:47;;;;;;;0.80;0.60;;;;;;;;;;5017095;28;20411;-78
2021/05/25 00:19:16;;;;;;;0.70;0.43;;;;;;;;;;5012684;28;20782;-72
2021/05/25 00:21:42;;;;;;;0.70;0.43;;;;;;;;;;5013046;28;20405;-76
2021/05/25 00:24:08;;;;;;;0.70;0.50;;;;;;;;;;5029770;28;20455;-76
2021/05/25 00:26:34;;;;;;;2.93;1.30;;;;;;;;;;5039024;28;20415;-78
2021/05/25 00:29:03;;;;;;;1.47;0.60;;;;;;;;;;5038432;28;20429;-77
2021/05/25 00:31:29;;;;;;;1.00;0.50;;;;;;;;;;5030702;28;20542;-77
2021/05/25 00:33:55;;;;;;;0.70;0.43;;;;;;;;;;5017002;28;20845;-78
2021/05/25 00:36:22;;;;;;;0.70;0.40;;;;;;;;;;5011184;28;20468;-78
2021/05/25 00:38:48;;;;;;;0.70;0.50;;;;;;;;;;4996606;28;20835;-78
2021/05/25 00:41:14;;;;;;;0.80;0.40;;;;;;;;;;4995236;28;20410;-79
2021/05/25 00:43:40;;;;;;;0.70;0.50;;;;;;;;;;4995716;28;20457;-80
2021/05/25 00:46:06;;;;;;;0.70;0.50;;;;;;;;;;4995099;28;20897;-78
2021/05/25 00:48:35;;;;;;;0.80;0.60;;;;;;;;;;4995779;28;20384;-78
2021/05/25 00:51:01;;;;;;;1.90;0.60;;;;;;;;;;5011497;28;20455;-80
2021/05/25 00:53:27;;;;;;;0.70;0.60;;;;;;;;;;4989735;28;20437;-75
2021/05/25 00:55:53;;;;;;;1.00;0.50;;;;;;;;;;5002202;28;20465;-74
2021/05/25 00:58:20;;;;;;;0.70;0.50;;;;;;;;;;5009404;28;20386;-73
2021/05/25 01:00:47;;;;;;;0.97;0.50;;;;;;;;;;5012006;28;20403;-74
2021/05/25 01:03:15;;;;;;;0.70;0.50;;;;;;;;;;5012440;28;20403;-74
2021/05/25 01:05:44;;;;;;;0.70;0.50;;;;;;;;;;5010624;28;20950;-74
2021/05/25 01:08:11;;;;;;;0.70;0.50;;;;;;;;;;5007040;28;20437;-73
2021/05/25 01:10:40;;;;;;;1.37;1.27;;;;;;;;;;5008606;28;20887;-74
2021/05/25 01:13:10;;;;;;;0.70;0.40;;;;;;;;;;4998284;28;20875;-74
2021/05/25 01:15:36;;;;;;;0.70;0.50;;;;;;;;;;4992601;28;20406;-74
2021/05/25 01:18:04;;;;;;;0.70;0.40;;;;;;;;;;4992903;28;20416;-76
2021/05/25 01:20:31;;;;;;;1.23;1.13;;;;;;;;;;4993305;28;20890;-75
2021/05/25 01:22:57;;;;;;;1.10;0.60;;;;;;;;;;5011198;28;20412;-76
2021/05/25 01:25:24;;;;;;;0.70;0.40;;;;;;;;;;5012486;28;20432;-76
2021/05/25 01:27:54;;;;;;;0.70;0.40;;;;;;;;;;4995319;28;20490;-76
2021/05/25 01:30:21;;;;;;;0.80;0.50;;;;;;;;;;4994226;28;20763;-75
2021/05/25 01:32:47;;;;;;;0.80;0.50;;;;;;;;;;4996643;28;20421;-76
2021/05/25 01:35:15;;;;;;;0.77;0.50;;;;;;;;;;5012369;28;20424;-76
2021/05/25 01:37:41;;;;;;;0.70;0.50;;;;;;;;;;4996658;28;20443;-76
2021/05/25 01:40:08;;;;;;;0.70;0.40;;;;;;;;;;5011134;28;20408;-76
2021/05/25 01:42:35;;;;;;;0.70;0.50;;;;;;;;;;5012190;28;20408;-76
2021/05/25 01:45:04;;;;;;;1.07;0.60;;;;;;;;;;5011878;28;20559;-76
2021/05/25 01:47:30;;;;;;;0.80;0.50;;;;;;;;;;5011949;28;20446;-76
2021/05/25 01:50:12;;;;;;;0.70;0.50;;;;;;;;;;5010549;28;20986;-75
2021/05/25 01:52:39;;;;;;;1.00;0.60;;;;;;;;;;5012006;28;20401;-76
2021/05/25 01:55:08;;;;;;;0.70;0.50;;;;;;;;;;5011704;28;20424;-76
2021/05/25 01:57:35;;;;;;;0.70;0.50;;;;;;;;;;5010284;28;20403;-76
2021/05/25 02:00:01;;;;;;;0.70;0.50;;;;;;;;;;4992752;28;20382;-75
2021/05/25 02:02:29;;;;;;;0.70;0.50;;;;;;;;;;4995906;28;20383;-76
2021/05/25 02:04:55;;;;;;;1.50;1.07;;;;;;;;;;4995186;28;20906;-76
2021/05/25 02:07:21;;;;;;;0.80;0.60;;;;;;;;;;4994070;28;20454;-77
2021/05/25 02:09:49;;;;;;;0.90;0.90;;;;;;;;;;4995818;28;20377;-76
2021/05/25 02:12:18;;;;;;;0.90;0.60;;;;;;;;;;4999948;28;20773;-76
2021/05/25 02:14:44;;;;;;;1.10;1.00;;;;;;;;;;5015435;28;20427;-76
2021/05/25 02:17:11;;;;;;;0.73;0.50;;;;;;;;;;5008832;28;20419;-76
2021/05/25 02:19:39;;;;;;;0.70;0.57;;;;;;;;;;5011048;28;20465;-76
2021/05/25 02:22:05;;;;;;;1.63;0.73;;;;;;;;;;5013383;28;20384;-76
2021/05/25 02:24:31;;;;;;;0.90;0.60;;;;;;;;;;4995427;28;20574;-76
2021/05/25 02:26:57;;;;;;;1.43;0.80;;;;;;;;;;4995650;28;20402;-76
2021/05/25 02:29:25;;;;;;;0.83;0.70;;;;;;;;;;5005655;28;20451;-76
2021/05/25 02:31:51;;;;;;;0.70;0.50;;;;;;;;;;5013924;28;20499;-76
2021/05/25 02:34:17;;;;;;;0.70;0.50;;;;;;;;;;5015089;28;20461;-76
2021/05/25 02:36:45;;;;;;;1.00;0.50;;;;;;;;;;5015689;28;20425;-74
2021/05/25 02:39:11;;;;;;;1.57;1.23;;;;;;;;;;5021081;28;20382;-80
2021/05/25 02:41:37;;;;;;;0.80;0.50;;;;;;;;;;5019423;28;20462;-79
2021/05/25 02:44:03;;;;;;;0.90;0.90;;;;;;;;;;5019314;28;20459;-79
2021/05/25 02:46:29;;;;;;;0.93;0.50;;;;;;;;;;5020156;28;20482;-81
2021/05/25 02:48:55;;;;;;;1.00;0.73;;;;;;;;;;5021247;28;20419;-81
2021/05/25 02:51:21;;;;;;;4.40;0.93;;;;;;;;;;5023727;28;20498;-81
2021/05/25 02:53:47;;;;;;;0.70;0.50;;;;;;;;;;5026035;28;20408;-79
2021/05/25 02:56:13;;;;;;;0.70;0.50;;;;;;;;;;5030098;28;20509;-79
2021/05/25 02:58:39;;;;;;;0.70;0.50;;;;;;;;;;5027138;28;20520;-80
2021/05/25 03:01:05;;;;;;;0.70;0.50;;;;;;;;;;5026079;28;20412;-79
2021/05/25 03:03:34;;;;;;;0.80;0.80;;;;;;;;;;5027116;28;20415;-78
2021/05/25 03:06:02;;;;;;;1.07;0.60;;;;;;;;;;5019882;28;20469;-77
2021/05/25 03:08:28;;;;;;;0.70;0.50;;;;;;;;;;5025185;28;20409;-76
2021/05/25 03:10:54;;;;;;;1.20;0.70;;;;;;;;;;5017572;28;20453;-72
2021/05/25 03:13:20;;;;;;;0.80;0.60;;;;;;;;;;5013243;28;20419;-71
2021/05/25 03:15:47;;;;;;;0.70;0.40;;;;;;;;;;5015028;28;20424;-72
2021/05/25 03:18:14;;;;;;;0.83;0.67;;;;;;;;;;5014823;28;20400;-71
2021/05/25 03:20:42;;;;;;;0.80;0.60;;;;;;;;;;5014802;28;20454;-71
2021/05/25 03:23:08;;;;;;;2.33;1.10;;;;;;;;;;5002322;28;20465;-73
2021/05/25 03:25:35;;;;;;;0.80;0.50;;;;;;;;;;4994240;28;20501;-71
2021/05/25 03:28:01;;;;;;;0.70;0.50;;;;;;;;;;4992805;28;20940;-71
2021/05/25 03:30:29;;;;;;;1.43;0.57;;;;;;;;;;5014004;28;20457;-77
2021/05/25 03:32:57;;;;;;;0.70;0.40;;;;;;;;;;5011585;28;20416;-79
2021/05/25 03:35:24;;;;;;;0.70;0.40;;;;;;;;;;5016407;28;20508;-78
2021/05/25 03:37:50;;;;;;;0.80;0.60;;;;;;;;;;5019583;28;20420;-78
2021/05/25 03:40:16;;;;;;;0.70;0.50;;;;;;;;;;5019986;28;20414;-78
2021/05/25 03:42:49;;;;;;;2.20;0.97;;;;;;;;;;5015021;28;20412;-79
2021/05/25 03:45:15;;;;;;;0.70;0.40;;;;;;;;;;5017104;28;20476;-78
2021/05/25 03:47:41;;;;;;;1.10;0.60;;;;;;;;;;5017635;28;20942;-79
2021/05/25 03:50:08;;;;;;;0.80;0.70;;;;;;;;;;5018878;28;20440;-77
2021/05/25 03:52:37;;;;;;;0.80;0.70;;;;;;;;;;5015531;28;20408;-77
2021/05/25 03:55:07;;;;;;;0.70;0.50;;;;;;;;;;5016248;28;20525;-77
2021/05/25 03:59:59;;;;;;;0.70;0.50;;;;;;;;;;4994184;28;20419;-75
2021/05/25 04:02:25;;;;;;;1.20;0.93;;;;;;;;;;4994344;28;20395;-76
2021/05/25 04:04:51;;;;;;;0.90;0.60;;;;;;;;;;4993869;28;20472;-76
2021/05/25 04:07:19;;;;;;;2.97;0.60;;;;;;;;;;4992556;28;20451;-76
2021/05/25 04:09:45;;;;;;;0.70;0.40;;;;;;;;;;4994718;28;20483;-77
2021/05/25 04:12:16;;;;;;;1.33;0.70;;;;;;;;;;5012403;28;20997;-76
2021/05/25 04:14:44;;;;;;;1.07;0.60;;;;;;;;;;5011934;28;20437;-76
2021/05/25 04:17:13;;;;;;;0.70;0.50;;;;;;;;;;5011647;28;20557;-77
2021/05/25 04:19:39;;;;;;;0.70;0.50;;;;;;;;;;5005188;28;20415;-78
2021/05/25 04:22:05;;;;;;;0.70;0.50;;;;;;;;;;5002073;28;20497;-76
2021/05/25 04:24:31;;;;;;;1.53;1.27;;;;;;;;;;5000369;28;20475;-77
2021/05/25 04:26:57;;;;;;;0.70;0.50;;;;;;;;;;5007265;28;20410;-77
2021/05/25 04:29:25;;;;;;;0.80;0.70;;;;;;;;;;5009564;28;20392;-78
2021/05/25 04:31:51;;;;;;;0.70;0.40;;;;;;;;;;5010399;28;20429;-76
2021/05/25 04:34:17;;;;;;;0.90;0.60;;;;;;;;;;5003217;28;20439;-76
2021/05/25 04:36:45;;;;;;;2.63;0.90;;;;;;;;;;5012520;28;20406;-78
2021/05/25 04:39:11;;;;;;;2.80;0.70;;;;;;;;;;5012304;28;20902;-78
2021/05/25 04:41:40;;;;;;;0.97;0.87;;;;;;;;;;5012288;28;20419;-78
2021/05/25 04:44:06;;;;;;;1.30;0.80;;;;;;;;;;5010629;28;20520;-75
2021/05/25 04:46:32;;;;;;;0.80;0.60;;;;;;;;;;5010520;28;20432;-76
2021/05/25 04:48:58;;;;;;;0.70;0.40;;;;;;;;;;5012168;28;20491;-76
2021/05/25 04:51:24;;;;;;;2.63;0.57;;;;;;;;;;5018376;28;20405;-79
2021/05/25 04:53:50;;;;;;;0.80;0.60;;;;;;;;;;5019920;28;20492;-79
2021/05/25 04:56:20;;;;;;;3.20;1.63;;;;;;;;;;5019115;28;20478;-79
2021/05/25 04:58:46;;;;;;;0.90;0.67;;;;;;;;;;5019968;28;20543;-79
2021/05/25 05:01:12;;;;;;;0.97;0.50;;;;;;;;;;5017074;28;20432;-79
2021/05/25 05:03:38;;;;;;;0.70;0.60;;;;;;;;;;5018247;28;20870;-78
2021/05/25 05:06:04;;;;;;;0.70;0.47;;;;;;;;;;5017759;28;20414;-79
2021/05/25 05:08:30;;;;;;;0.80;0.60;;;;;;;;;;5018759;28;20737;-79
2021/05/25 05:10:56;;;;;;;0.70;0.50;;;;;;;;;;5021450;28;20434;-78
2021/05/25 05:13:22;;;;;;;0.70;0.50;;;;;;;;;;5039149;28;20378;-78
2021/05/25 05:15:48;;;;;;;0.80;0.50;;;;;;;;;;5038954;28;20435;-78
2021/05/25 05:18:14;;;;;;;0.70;0.60;;;;;;;;;;5038433;28;20412;-77
2021/05/25 05:20:42;;;;;;;1.47;0.60;;;;;;;;;;5034528;28;20413;-77
2021/05/25 05:23:08;;;;;;;1.63;0.83;;;;;;;;;;5014274;28;20496;-76
2021/05/25 05:25:35;;;;;;;0.80;0.60;;;;;;;;;;5012730;28;20485;-76
2021/05/25 05:28:03;;;;;;;0.80;0.40;;;;;;;;;;4981095;28;20873;-76
2021/05/25 05:30:30;;;;;;;0.70;0.50;;;;;;;;;;4999860;28;21665;-76
2021/05/25 05:32:56;;;;;;;1.07;0.50;;;;;;;;;;4998286;28;20388;-75
2021/05/25 05:35:22;;;;;;;0.80;0.70;;;;;;;;;;4998079;28;20430;-81
2021/05/25 05:37:48;;;;;;;0.70;0.50;;;;;;;;;;5014936;28;20395;-79
2021/05/25 05:40:14;;;;;;;0.70;0.57;;;;;;;;;;5017266;28;20441;-81
2021/05/25 05:42:40;;;;;;;0.80;0.50;;;;;;;;;;5015336;28;20412;-83
2021/05/25 05:45:08;;;;;;;1.33;1.23;;;;;;;;;;5011137;28;20458;-79
2021/05/25 05:47:36;;;;;;;0.70;0.63;;;;;;;;;;5015422;28;20422;-80
2021/05/25 05:50:10;;;;;;;0.70;0.50;;;;;;;;;;5008166;28;20405;-78
2021/05/25 05:52:39;;;;;;;0.90;0.70;;;;;;;;;;5009928;28;20390;-80
2021/05/25 05:55:05;;;;;;;1.10;0.60;;;;;;;;;;5002704;28;20474;-76
2021/05/25 05:57:32;;;;;;;1.20;0.80;;;;;;;;;;5010149;28;20432;-78
2021/05/25 06:00:13;;;;;;;1.00;0.70;;;;;;;;;;5008275;28;20407;-74
2021/05/25 06:02:39;;;;;;;0.83;0.67;;;;;;;;;;5005439;28;20408;-74
2021/05/25 06:05:06;;;;;;;0.70;0.50;;;;;;;;;;5010742;28;20904;-73
2021/05/25 06:07:32;;;;;;;0.70;0.60;;;;;;;;;;5011074;28;20414;-73
2021/05/25 06:10:02;;;;;;;0.80;0.60;;;;;;;;;;5009684;28;20416;-74
2021/05/25 06:12:28;;;;;;;0.87;0.87;;;;;;;;;;5009447;28;20558;-77
2021/05/25 06:14:54;;;;;;;0.80;0.60;;;;;;;;;;5005282;28;20444;-78
2021/05/25 06:17:20;;;;;;;0.90;0.63;;;;;;;;;;4991887;28;20417;-77
2021/05/25 06:19:46;;;;;;;1.10;0.70;;;;;;;;;;5004279;28;20414;-78
2021/05/25 06:22:12;;;;;;;1.00;0.70;;;;;;;;;;5012152;28;20430;-78
2021/05/25 06:24:39;;;;;;;1.03;0.60;;;;;;;;;;5011400;28;20472;-77
2021/05/25 06:27:17;;;;;;;1.10;0.90;;;;;;;;;;5011199;28;20385;-76
2021/05/25 06:29:49;;;;;;;1.30;0.63;;;;;;;;;;5006536;28;20443;-76
2021/05/25 06:32:15;;;;;;;0.93;0.60;;;;;;;;;;5005538;28;20454;-77
2021/05/25 06:34:41;;;;;;;1.33;1.23;;;;;;;;;;4996044;28;20440;-81
2021/05/25 06:37:08;;;;;;;1.33;0.80;;;;;;;;;;5000503;28;20492;-81
2021/05/25 06:39:34;;;;;;;0.80;0.43;;;;;;;;;;5014488;28;20406;-82
2021/05/25 06:42:00;;;;;;;0.70;0.60;;;;;;;;;;5012941;28;20505;-81
2021/05/25 06:44:26;;;;;;;2.73;0.80;;;;;;;;;;5011497;28;20592;-77
2021/05/25 06:46:52;;;;;;;0.70;0.60;;;;;;;;;;5008505;28;20417;-76
2021/05/25 06:49:18;;;;;;;2.17;1.00;;;;;;;;;;5016196;28;20524;-76
2021/05/25 06:51:44;;;;;;;1.10;0.90;;;;;;;;;;5020892;28;20401;-77
2021/05/25 06:54:13;;;;;;;1.27;1.07;;;;;;;;;;5014014;28;21155;-78
2021/05/25 06:56:41;;;;;;;0.80;0.50;;;;;;;;;;5013049;28;20412;-78
2021/05/25 06:59:07;;;;;;;1.83;0.60;;;;;;;;;;5011653;28;20439;-76
2021/05/25 07:01:34;;;;;;;1.00;0.80;;;;;;;;;;5009430;28;20899;-76
2021/05/25 07:04:02;;;;;;;0.80;0.53;;;;;;;;;;5012796;28;20460;-80
2021/05/25 07:06:31;;;;;;;1.57;0.70;;;;;;;;;;5001276;28;20415;-77
2021/05/25 07:08:57;;;;;;;1.47;0.50;;;;;;;;;;4995046;28;20739;-77
2021/05/25 07:11:25;;;;;;;0.90;0.80;;;;;;;;;;5000425;28;20399;-76
2021/05/25 07:13:57;;;;;;;0.70;0.53;;;;;;;;;;5003849;28;20464;-77
2021/05/25 07:16:23;;;;;;;0.70;0.50;;;;;;;;;;5007964;28;20465;-77
2021/05/25 07:18:49;;;;;;;0.80;0.70;;;;;;;;;;5007312;28;20488;-77
2021/05/25 07:21:15;;;;;;;0.90;0.70;;;;;;;;;;5004415;28;20399;-77
2021/05/25 07:23:43;;;;;;;1.10;0.90;;;;;;;;;;5009555;28;20874;-75
2021/05/25 07:26:09;;;;;;;1.00;0.60;;;;;;;;;;5008580;28;20487;-74
2021/05/25 07:28:35;;;;;;;1.27;0.90;;;;;;;;;;5001652;28;21013;-74
2021/05/25 07:31:01;;;;;;;1.00;0.60;;;;;;;;;;5009452;28;20401;-74
2021/05/25 07:33:27;;;;;;;0.97;0.57;;;;;;;;;;5008081;28;20417;-77
2021/05/25 07:35:53;;;;;;;0.80;0.60;;;;;;;;;;5009318;28;20456;-77
2021/05/25 07:38:20;;;;;;;0.70;0.50;;;;;;;;;;5012312;28;20863;-77
2021/05/25 07:40:46;;;;;;;0.80;0.60;;;;;;;;;;5013168;28;20406;-78
2021/05/25 07:43:12;;;;;;;0.80;0.60;;;;;;;;;;5012925;28;20380;-77
2021/05/25 07:45:41;;;;;;;5.73;2.07;;;;;;;;;;5012264;28;20455;-77
2021/05/25 07:48:07;;;;;;;0.80;0.67;;;;;;;;;;5013903;28;20381;-80
2021/05/25 07:50:33;;;;;;;1.00;0.70;;;;;;;;;;5007432;28;20469;-78
2021/05/25 07:52:59;;;;;;;0.70;0.53;;;;;;;;;;5013419;28;20380;-79
2021/05/25 07:55:26;;;;;;;1.10;0.80;;;;;;;;;;5012810;28;20467;-73
2021/05/25 07:57:53;;;;;;;1.00;0.60;;;;;;;;;;5010774;28;20423;-78
2021/05/25 08:00:20;;;;;;;0.80;0.60;;;;;;;;;;5011533;28;20463;-77
2021/05/25 08:02:46;;;;;;;1.00;0.80;;;;;;;;;;5013185;28;20421;-77
2021/05/25 08:05:13;;;;;;;0.70;0.50;;;;;;;;;;5015350;28;20467;-79
2021/05/25 08:07:39;;;;;;;0.70;0.50;;;;;;;;;;5037294;28;20405;-77
2021/05/25 08:10:06;;;;;;;1.77;0.77;;;;;;;;;;5040115;28;20415;-85
2021/05/25 08:12:34;;;;;;;2.73;0.70;;;;;;;;;;5040118;28;20406;-79
2021/05/25 08:15:02;;;;;;;1.83;0.90;;;;;;;;;;5039453;28;20439;-78
2021/05/25 08:20:14;;;;;;;0.70;0.43;;;;;;;;;;5025264;28;20417;-76
2021/05/25 08:22:40;;;;;;;0.70;0.50;;;;;;;;;;5014807;28;20393;-80
2021/05/25 08:25:10;;;;;;;0.70;0.50;;;;;;;;;;5003849;28;20983;-76
2021/05/25 08:27:36;;;;;;;0.80;0.60;;;;;;;;;;5007207;28;20383;-79
2021/05/25 08:30:03;;;;;;;0.80;0.60;;;;;;;;;;5009844;28;20500;-77
2021/05/25 08:32:28;;;;;;;0.80;0.50;;;;;;;;;;5005916;28;20553;-75
2021/05/25 08:34:55;;;;;;;0.70;0.60;;;;;;;;;;5002416;28;20521;-74
2021/05/25 08:37:21;;;;;;;0.70;0.67;;;;;;;;;;5000861;28;20389;-76
2021/05/25 08:39:47;;;;;;;0.70;0.47;;;;;;;;;;5002762;28;20376;-75
2021/05/25 08:42:13;;;;;;;12.97;0.90;;;;;;;;;;5003709;28;20496;-76
2021/05/25 08:44:39;;;;;;;1.23;0.80;;;;;;;;;;5003730;28;20894;-75
2021/05/25 08:47:06;;;;;;;0.83;0.60;;;;;;;;;;5002078;28;20987;-74
2021/05/25 08:49:34;;;;;;;1.57;1.20;;;;;;;;;;5004345;28;20433;-74
2021/05/25 08:52:02;;;;;;;1.30;0.73;;;;;;;;;;5007444;28;20410;-76
2021/05/25 08:54:28;;;;;;;2.07;1.40;;;;;;;;;;5002673;28;20412;-76
2021/05/25 08:56:54;;;;;;;0.80;0.67;;;;;;;;;;5011746;28;20452;-75
2021/05/25 08:59:20;;;;;;;1.20;1.10;;;;;;;;;;5012940;28;20908;-77
2021/05/25 09:01:48;;;;;;;1.20;1.00;;;;;;;;;;5011176;28;20519;-73
2021/05/25 09:04:15;;;;;;;0.70;0.50;;;;;;;;;;4999177;28;20473;-73
2021/05/25 09:06:45;;;;;;;0.80;0.60;;;;;;;;;;5011105;28;20418;-73
2021/05/25 09:09:11;;;;;;;2.70;1.53;;;;;;;;;;5010105;28;20447;-73
2021/05/25 09:12:02;;;;;;;2.03;0.70;;;;;;;;;;5013221;28;20418;-73
2021/05/25 09:14:29;;;;;;;0.93;0.70;;;;;;;;;;5011804;28;20953;-73
2021/05/25 09:17:15;;;;;;;0.80;0.63;;;;;;;;;;5011113;28;20488;-73
2021/05/25 09:19:44;;;;;;;0.80;0.60;;;;;;;;;;5011051;28;20484;-72
2021/05/25 09:22:27;;;;;;;2.00;1.90;;;;;;;;;;5010804;28;20417;-73
2021/05/25 09:24:53;;;;;;;3.23;1.10;;;;;;;;;;5011509;28;20470;-73
2021/05/25 09:27:29;;;;;;;1.37;0.90;;;;;;;;;;5004801;28;20409;-72
2021/05/25 09:30:09;;;;;;;0.90;0.60;;;;;;;;;;5007263;28;20404;-72
2021/05/25 09:32:38;;;;;;;1.00;0.90;;;;;;;;;;4995535;28;20427;-72
2021/05/25 09:35:07;;;;;;;2.37;1.20;;;;;;;;;;5004148;28;20423;-71
2021/05/25 09:37:53;;;;;;;0.80;0.50;;;;;;;;;;5002866;28;20788;-73
2021/05/25 09:40:20;;;;;;;1.30;0.80;;;;;;;;;;5006639;28;21218;-74
2021/05/25 09:42:52;;;;;;;2.70;1.07;;;;;;;;;;5008143;28;20430;-74
2021/05/25 09:45:18;;;;;;;1.53;0.90;;;;;;;;;;5007644;28;20492;-73
2021/05/25 09:47:52;;;;;;;0.80;0.70;;;;;;;;;;5001447;28;20400;-73
2021/05/25 09:50:20;;;;;;;1.07;0.97;;;;;;;;;;5008413;28;20440;-73
2021/05/25 09:53:03;;;;;;;1.20;1.00;;;;;;;;;;5006457;28;20413;-74
2021/05/25 09:55:30;;;;;;;0.80;0.60;;;;;;;;;;4997859;28;20473;-73
2021/05/25 09:57:56;;;;;;;1.20;0.70;;;;;;;;;;5007776;28;20398;-73
2021/05/25 10:00:26;;;;;;;0.80;0.57;;;;;;;;;;5007763;28;20431;-72
2021/05/25 10:03:05;;;;;;;0.93;0.77;;;;;;;;;;5008263;28;20427;-73
2021/05/25 10:05:32;;;;;;;1.50;1.40;;;;;;;;;;5001965;28;21169;-72
2021/05/25 10:08:01;;;;;;;0.93;0.80;;;;;;;;;;5007915;28;20436;-72
2021/05/25 10:10:28;;;;;;;0.70;0.50;;;;;;;;;;5009186;28;20873;-72
2021/05/25 10:12:55;;;;;;;1.20;0.80;;;;;;;;;;4992342;28;20492;-73
2021/05/25 10:15:23;;;;;;;0.80;0.60;;;;;;;;;;4992422;28;20799;-73
2021/05/25 10:20:27;;;;;;;3.67;1.00;;;;;;;;;;5003317;28;20436;-73
2021/05/25 10:22:54;;;;;;;0.87;0.63;;;;;;;;;;5011746;28;20512;-72
2021/05/25 10:25:21;;;;;;;0.90;0.70;;;;;;;;;;5012387;28;20460;-73
2021/05/25 10:27:47;;;;;;;1.00;0.80;;;;;;;;;;5011058;28;20424;-73
2021/05/25 10:30:25;;;;;;;1.00;0.90;;;;;;;;;;5011238;28;20972;-73
2021/05/25 10:33:13;;;;;;;0.80;0.67;;;;;;;;;;4998739;28;20412;-73
2021/05/25 10:35:54;;;;;;;2.43;1.00;;;;;;;;;;5011888;28;20494;-73
2021/05/25 10:38:25;;;;;;;2.20;0.80;;;;;;;;;;5012727;28;20969;-73
2021/05/25 10:40:54;;;;;;;29.00;1.50;;;;;;;;;;5009869;28;20420;-74
2021/05/25 10:43:33;;;;;;;0.90;0.73;;;;;;;;;;5010218;28;21223;-73
2021/05/25 10:46:11;;;;;;;0.80;0.80;;;;;;;;;;5011458;28;20562;-73
2021/05/25 10:48:50;;;;;;;0.77;0.63;;;;;;;;;;5008135;28;20416;-73
2021/05/25 10:51:16;;;;;;;1.00;0.90;;;;;;;;;;5011494;28;20936;-73
2021/05/25 10:53:43;;;;;;;2.20;1.90;;;;;;;;;;5011406;28;20420;-74
2021/05/25 10:56:24;;;;;;;0.93;0.63;;;;;;;;;;5011597;28;20519;-74
2021/05/25 10:59:00;;;;;;;1.20;0.60;;;;;;;;;;5007488;28;20443;-73
2021/05/25 11:01:30;;;;;;;0.80;0.60;;;;;;;;;;5007301;28;20930;-73
2021/05/25 11:04:09;;;;;;;0.70;0.50;;;;;;;;;;4993185;28;20538;-72
2021/05/25 11:06:35;;;;;;;0.70;0.60;;;;;;;;;;4994025;28;20399;-73
2021/05/25 11:09:20;;;;;;;0.70;0.50;;;;;;;;;;5008084;28;20439;-73
2021/05/25 11:11:46;;;;;;;1.10;0.70;;;;;;;;;;5010121;28;20379;-72
2021/05/25 11:14:13;;;;;;;0.80;0.50;;;;;;;;;;5010023;28;20440;-73
2021/05/25 11:16:40;;;;;;;0.70;0.50;;;;;;;;;;5008876;28;20861;-73
2021/05/25 11:19:10;;;;;;;0.90;0.70;;;;;;;;;;5008510;28;20419;-72
2021/05/25 11:21:40;;;;;;;0.80;0.70;;;;;;;;;;5009984;28;21000;-72
2021/05/25 11:24:27;;;;;;;2.60;1.00;;;;;;;;;;5008773;28;20454;-73
2021/05/25 11:26:57;;;;;;;0.80;0.50;;;;;;;;;;5000264;28;20430;-73
2021/05/25 11:29:27;;;;;;;0.70;0.50;;;;;;;;;;5008524;28;20427;-73
2021/05/25 11:31:56;;;;;;;0.87;0.60;;;;;;;;;;5011757;28;20417;-73
2021/05/25 11:34:23;;;;;;;0.70;0.50;;;;;;;;;;5008896;28;20522;-71
2021/05/25 11:36:56;;;;;;;1.23;0.80;;;;;;;;;;5009346;28;20413;-72
2021/05/25 11:39:22;;;;;;;1.17;1.07;;;;;;;;;;5009650;28;20899;-72
2021/05/25 11:41:48;;;;;;;0.90;0.57;;;;;;;;;;4995484;28;20425;-72
2021/05/25 11:44:16;;;;;;;0.90;0.70;;;;;;;;;;4999652;28;20466;-73
2021/05/25 11:46:46;;;;;;;0.80;0.80;;;;;;;;;;5011421;28;20383;-73
2021/05/25 11:49:15;;;;;;;1.10;0.67;;;;;;;;;;5012268;28;20495;-73
2021/05/25 11:51:41;;;;;;;1.23;0.60;;;;;;;;;;5011045;28;20434;-73
2021/05/25 11:54:18;;;;;;;1.40;0.97;;;;;;;;;;5013052;28;20534;-74
2021/05/25 11:56:51;;;;;;;1.00;0.90;;;;;;;;;;5011317;28;20475;-73
2021/05/25 11:59:19;;;;;;;0.97;0.70;;;;;;;;;;5012248;28;20426;-73
2021/05/25 12:01:49;;;;;;;0.70;0.50;;;;;;;;;;4996932;28;20434;-71
2021/05/25 12:04:16;;;;;;;0.70;0.60;;;;;;;;;;5019285;28;20430;-73
2021/05/25 12:06:56;;;;;;;0.80;0.70;;;;;;;;;;5023569;28;20412;-75
2021/05/25 12:09:26;;;;;;;0.80;0.60;;;;;;;;;;5022087;28;20694;-74
2021/05/25 12:11:55;;;;;;;1.67;1.27;;;;;;;;;;5021793;28;20424;-73
2021/05/25 12:14:27;;;;;;;1.60;0.70;;;;;;;;;;5021919;28;20437;-73
2021/05/25 12:17:00;;;;;;;2.53;0.60;;;;;;;;;;5024035;28;20452;-71
2021/05/25 12:19:26;;;;;;;1.03;0.73;;;;;;;;;;5023707;28;20425;-72
2021/05/25 12:22:05;;;;;;;0.87;0.67;;;;;;;;;;5023660;28;20440;-71
2021/05/25 12:24:32;;;;;;;0.80;0.70;;;;;;;;;;5022892;28;20471;-71
2021/05/25 12:26:58;;;;;;;0.83;0.70;;;;;;;;;;5017348;28;20388;-71
2021/05/25 12:29:28;;;;;;;1.40;0.73;;;;;;;;;;5009017;28;20388;-73
2021/05/25 12:31:54;;;;;;;1.43;0.93;;;;;;;;;;5010717;28;20387;-70
2021/05/25 12:34:21;;;;;;;1.30;0.77;;;;;;;;;;5009118;28;20963;-70
2021/05/25 12:36:53;;;;;;;0.83;0.60;;;;;;;;;;5009545;28;20440;-72
2021/05/25 12:39:30;;;;;;;2.00;0.80;;;;;;;;;;5007335;28;20419;-70
2021/05/25 12:41:56;;;;;;;1.87;1.33;;;;;;;;;;5003140;28;20376;-72
2021/05/25 12:44:30;;;;;;;0.70;0.60;;;;;;;;;;5017366;28;20468;-73
2021/05/25 12:46:56;;;;;;;3.93;1.30;;;;;;;;;;5019526;28;20473;-72
2021/05/25 12:49:29;;;;;;;0.87;0.60;;;;;;;;;;5020607;28;20425;-74
2021/05/25 12:52:16;;;;;;;1.93;1.43;;;;;;;;;;5019187;28;20476;-73
2021/05/25 12:55:03;;;;;;;2.50;1.40;;;;;;;;;;5019183;28;20446;-74
2021/05/25 12:57:48;;;;;;;0.83;0.83;;;;;;;;;;5020493;28;20409;-73
2021/05/25 13:00:16;;;;;;;0.80;0.77;;;;;;;;;;5019455;28;20385;-71
2021/05/25 13:02:42;;;;;;;0.90;0.60;;;;;;;;;;5019548;28;20382;-72
2021/05/25 13:05:10;;;;;;;1.40;1.30;;;;;;;;;;5017955;28;20551;-71
2021/05/25 13:07:53;;;;;;;1.30;1.20;;;;;;;;;;5017724;28;20375;-72
2021/05/25 13:10:26;;;;;;;1.27;0.60;;;;;;;;;;5010702;28;20916;-71
2021/05/25 13:12:52;;;;;;;1.17;1.07;;;;;;;;;;5006261;28;20383;-72
2021/05/25 13:15:21;;;;;;;0.80;0.60;;;;;;;;;;5006600;28;20875;-72
2021/05/25 13:17:55;;;;;;;0.80;0.60;;;;;;;;;;5004190;28;20423;-73
2021/05/25 13:20:24;;;;;;;0.80;0.60;;;;;;;;;;5006104;28;20904;-71
2021/05/25 13:22:50;;;;;;;0.80;0.50;;;;;;;;;;5006622;28;20895;-72
2021/05/25 13:25:17;;;;;;;0.70;0.50;;;;;;;;;;5014774;28;20437;-73
2021/05/25 13:27:52;;;;;;;0.80;0.50;;;;;;;;;;5012593;28;20399;-74
2021/05/25 13:30:30;;;;;;;0.70;0.47;;;;;;;;;;5011067;28;20418;-73
2021/05/25 13:32:58;;;;;;;0.70;0.57;;;;;;;;;;5013629;28;20399;-71
2021/05/25 13:35:27;;;;;;;0.90;0.60;;;;;;;;;;5015553;28;20498;-73
2021/05/25 13:37:53;;;;;;;1.53;0.70;;;;;;;;;;5015410;28;20384;-71
2021/05/25 13:40:19;;;;;;;4.73;1.07;;;;;;;;;;5014625;28;20395;-73
2021/05/25 13:42:45;;;;;;;1.00;0.57;;;;;;;;;;5017933;28;20411;-72
2021/05/25 13:45:11;;;;;;;0.90;0.70;;;;;;;;;;5017191;28;20452;-73
2021/05/25 13:47:37;;;;;;;0.80;0.53;;;;;;;;;;5016255;28;20467;-72
2021/05/25 13:50:22;;;;;;;1.00;0.70;;;;;;;;;;5014052;28;20820;-75
2021/05/25 13:52:48;;;;;;;1.77;0.80;;;;;;;;;;4991668;28;20398;-75
2021/05/25 13:55:14;;;;;;;4.70;1.70;;;;;;;;;;4991699;28;20426;-75
2021/05/25 13:57:42;;;;;;;1.07;0.90;;;;;;;;;;4996310;28;20407;-74
2021/05/25 14:00:16;;;;;;;0.90;0.70;;;;;;;;;;5010958;28;20821;-75
2021/05/25 14:02:42;;;;;;;6.53;1.40;;;;;;;;;;5010735;28;20394;-74
2021/05/25 14:05:08;;;;;;;1.40;1.10;;;;;;;;;;5009080;28;20438;-74
2021/05/25 14:07:40;;;;;;;0.80;0.60;;;;;;;;;;5010675;28;20419;-74
2021/05/25 14:10:06;;;;;;;1.13;0.93;;;;;;;;;;5051437;22;20577;-67
2021/05/25 14:12:32;;;;;;;0.80;0.60;;;;;;;;;;5050246;28;20411;-69
2021/05/25 14:14:58;;;;;;;1.20;0.80;;;;;;;;;;5031556;28;20497;-71
2021/05/25 14:17:24;;;;;;;1.43;1.07;;;;;;;;;;5049903;28;20411;-71
2021/05/25 14:19:51;;;;;;;0.80;0.67;;;;;;;;;;5048803;28;21091;-70
2021/05/25 14:22:17;;;;;;;1.00;0.73;;;;;;;;;;5049777;28;20454;-70
2021/05/25 14:24:43;;;;;;;1.47;0.80;;;;;;;;;;5051404;28;20478;-71
2021/05/25 14:27:09;;;;;;;0.90;0.73;;;;;;;;;;5048005;28;20446;-71
2021/05/25 14:29:35;;;;;;;0.90;0.70;;;;;;;;;;5056279;28;20516;-71
2021/05/25 14:32:01;;;;;;;2.20;0.90;;;;;;;;;;5049870;28;20405;-71
2021/05/25 14:34:26;;;;;;;0.90;0.63;;;;;;;;;;5049431;28;20407;-71
2021/05/25 14:36:52;;;;;;;0.97;0.87;;;;;;;;;;5049765;28;20434;-71
2021/05/25 14:39:18;;;;;;;1.70;1.40;;;;;;;;;;5048623;28;20408;-70
2021/05/25 14:41:44;;;;;;;1.63;0.70;;;;;;;;;;5050029;28;20397;-70
2021/05/25 14:44:10;;;;;;;0.77;0.53;;;;;;;;;;5049334;28;20496;-70
2021/05/25 14:46:36;;;;;;;0.80;0.60;;;;;;;;;;5049880;28;20401;-70
2021/05/25 14:49:02;;;;;;;0.90;0.77;;;;;;;;;;5050229;28;20418;-71
2021/05/25 14:51:28;;;;;;;1.10;0.70;;;;;;;;;;5048608;28;20424;-71
2021/05/25 14:53:57;;;;;;;0.90;0.60;;;;;;;;;;5064896;28;20414;-70
2021/05/25 14:56:26;;;;;;;1.47;0.83;;;;;;;;;;5051472;28;20496;-71
2021/05/25 14:58:56;;;;;;;0.80;0.80;;;;;;;;;;5058989;28;20385;-70